Hlavní strana
METAR-TAF:

METAR-TAF

Letiště :

Nagasaki, Japonsko

zeměpisná šířka: 32-55N, zeměpisná délka: 129-55E, výška: 2 m

Aktuální stav počasí

Zpráva byla vytvořena před 1 hodinou a 3 minutami, v 06:00 UTC
Severozápadní vítr 11 kt
Teplota 17°C
Vlhkost vzduchu 45%
Tlak 1019 hPa
Viditelnost 10 km a více
Žádná oblačnost pod 1500 m, nevyskytují se cumulonimby.

METAR: RJFU 020600Z 31011KT CAVOK 17/05 Q1019

Čas: 16:03 (07:03 UTC)

Předpověď počasí

Zpráva byla vytvořena před 1 hodinou a 58 minutami, v 05:05 UTC
Předpověď platná od 02 v 06 UTC do 03 v 12 UTC
Severoseverozápadní vítr 10 kt
Viditelnost 10 km a více
Skoro jasno ve výšce 4500 ft
Změna
od 02 v 15 UTC do 02 v 17 UTC
Jihovýchodní vítr 4 kt
Změna
od 03 v 03 UTC do 03 v 06 UTC
Severozápadní vítr 6 kt

TAF: RJFU 020505Z 0206/0312 34010KT 9999 FEW045 BECMG 0215/0217 14004KT BECMG 0303/0306 32006KT

Stav a předpovědi počasí z více než 4 000 letišť (zprávy METAR a TAF).

Červené a žluté tečky na mapě představují dostupné meteorologické stanice.

Když kurzor umístíte na tečku, zobrazí se název stanice.

Pak kliknutím zobrazíte stav a předpověď počasí.

Chcete-li změnit mapu, kliknutím na zelené tlačítko se znaménkem +mapu přiblížíte, kliknutím na zelené tlačítko se znaménkem – mapu oddálíte a kliknutím na zelené šipky přejdete na sousední mapy.


METAR-TAF: